sensor_id;sensor_type;location;lat;lon;timestamp;pressure;altitude;pressure_sealevel;temperature;humidity
5883;BME280;2967;51.488;6.618;2023-01-31T00:00:09;102162.94;;;6.36;100.00
5883;BME280;2967;51.488;6.618;2023-01-31T00:05:12;102159.88;;;6.18;100.00
5883;BME280;2967;51.488;6.618;2023-01-31T00:10:16;102172.44;;;6.07;100.00
5883;BME280;2967;51.488;6.618;2023-01-31T00:15:19;102164.81;;;5.96;100.00
5883;BME280;2967;51.488;6.618;2023-01-31T00:20:22;102175.56;;;5.86;100.00
5883;BME280;2967;51.488;6.618;2023-01-31T00:25:26;102174.78;;;5.82;100.00
5883;BME280;2967;51.488;6.618;2023-01-31T00:30:28;102177.63;;;5.72;100.00
5883;BME280;2967;51.488;6.618;2023-01-31T00:35:31;102172.44;;;5.69;100.00
5883;BME280;2967;51.488;6.618;2023-01-31T00:40:35;102175.34;;;5.55;100.00
5883;BME280;2967;51.488;6.618;2023-01-31T00:45:40;102171.88;;;5.56;100.00
5883;BME280;2967;51.488;6.618;2023-01-31T00:50:42;102173.09;;;5.40;100.00
5883;BME280;2967;51.488;6.618;2023-01-31T00:55:46;102172.19;;;5.41;100.00
5883;BME280;2967;51.488;6.618;2023-01-31T01:00:49;102188.19;;;5.29;100.00
5883;BME280;2967;51.488;6.618;2023-01-31T01:05:51;102183.88;;;5.27;100.00
5883;BME280;2967;51.488;6.618;2023-01-31T01:10:55;102173.63;;;5.54;100.00
5883;BME280;2967;51.488;6.618;2023-01-31T01:16:03;102170.84;;;5.62;100.00
5883;BME280;2967;51.488;6.618;2023-01-31T01:21:07;102179.59;;;5.61;100.00
5883;BME280;2967;51.488;6.618;2023-01-31T01:26:14;102179.56;;;5.64;100.00
5883;BME280;2967;51.488;6.618;2023-01-31T01:31:18;102174.41;;;5.59;100.00
5883;BME280;2967;51.488;6.618;2023-01-31T01:36:21;102165.63;;;5.62;100.00
5883;BME280;2967;51.488;6.618;2023-01-31T01:41:27;102156.25;;;5.50;100.00
5883;BME280;2967;51.488;6.618;2023-01-31T01:46:32;102156.50;;;5.38;100.00
5883;BME280;2967;51.488;6.618;2023-01-31T01:51:36;102149.41;;;5.04;100.00
5883;BME280;2967;51.488;6.618;2023-01-31T01:56:44;102154.75;;;4.98;100.00
5883;BME280;2967;51.488;6.618;2023-01-31T02:01:49;102154.94;;;4.89;100.00
5883;BME280;2967;51.488;6.618;2023-01-31T02:06:53;102162.25;;;5.14;100.00
5883;BME280;2967;51.488;6.618;2023-01-31T02:11:57;102155.25;;;5.16;100.00
5883;BME280;2967;51.488;6.618;2023-01-31T02:17:00;102161.19;;;5.24;100.00
5883;BME280;2967;51.488;6.618;2023-01-31T02:22:11;102163.88;;;5.21;100.00
5883;BME280;2967;51.488;6.618;2023-01-31T02:27:28;102164.13;;;5.11;100.00
5883;BME280;2967;51.488;6.618;2023-01-31T02:32:52;102168.25;;;5.21;100.00
5883;BME280;2967;51.488;6.618;2023-01-31T02:38:08;102177.81;;;5.23;100.00
5883;BME280;2967;51.488;6.618;2023-01-31T02:43:21;102179.50;;;5.27;100.00
5883;BME280;2967;51.488;6.618;2023-01-31T02:48:35;102168.22;;;5.22;100.00
5883;BME280;2967;51.488;6.618;2023-01-31T02:53:46;102162.03;;;5.26;100.00
5883;BME280;2967;51.488;6.618;2023-01-31T02:58:54;102163.06;;;5.19;100.00
5883;BME280;2967;51.488;6.618;2023-01-31T03:04:02;102159.78;;;5.08;100.00
5883;BME280;2967;51.488;6.618;2023-01-31T03:09:10;102151.03;;;5.09;100.00
5883;BME280;2967;51.488;6.618;2023-01-31T03:14:39;102146.16;;;4.92;100.00
5883;BME280;2967;51.488;6.618;2023-01-31T03:19:53;102131.97;;;5.00;100.00
5883;BME280;2967;51.488;6.618;2023-01-31T03:25:04;102125.06;;;4.98;100.00
5883;BME280;2967;51.488;6.618;2023-01-31T03:30:12;102139.66;;;5.09;100.00
5883;BME280;2967;51.488;6.618;2023-01-31T03:35:19;102116.56;;;4.85;100.00
5883;BME280;2967;51.488;6.618;2023-01-31T03:40:25;102123.06;;;5.08;100.00
5883;BME280;2967;51.488;6.618;2023-01-31T03:45:33;102107.38;;;5.07;100.00
5883;BME280;2967;51.488;6.618;2023-01-31T03:50:41;102101.13;;;5.12;100.00
5883;BME280;2967;51.488;6.618;2023-01-31T03:55:49;102089.09;;;5.04;100.00
5883;BME280;2967;51.488;6.618;2023-01-31T04:00:55;102082.94;;;5.05;100.00
5883;BME280;2967;51.488;6.618;2023-01-31T04:06:02;102080.72;;;4.86;100.00
5883;BME280;2967;51.488;6.618;2023-01-31T04:11:09;102080.13;;;5.12;100.00
5883;BME280;2967;51.488;6.618;2023-01-31T04:16:13;102075.09;;;5.03;100.00
5883;BME280;2967;51.488;6.618;2023-01-31T04:21:17;102080.31;;;5.05;100.00
5883;BME280;2967;51.488;6.618;2023-01-31T04:26:20;102088.06;;;5.11;100.00
5883;BME280;2967;51.488;6.618;2023-01-31T04:31:22;102085.31;;;5.15;100.00
5883;BME280;2967;51.488;6.618;2023-01-31T04:36:26;102093.22;;;5.14;100.00
5883;BME280;2967;51.488;6.618;2023-01-31T04:41:29;102094.78;;;4.83;100.00
5883;BME280;2967;51.488;6.618;2023-01-31T04:46:32;102085.84;;;4.93;100.00
5883;BME280;2967;51.488;6.618;2023-01-31T04:51:36;102085.47;;;5.09;100.00
5883;BME280;2967;51.488;6.618;2023-01-31T04:56:39;102069.44;;;5.21;100.00
5883;BME280;2967;51.488;6.618;2023-01-31T05:01:41;102080.75;;;5.23;100.00
5883;BME280;2967;51.488;6.618;2023-01-31T05:06:45;102080.72;;;5.26;100.00
5883;BME280;2967;51.488;6.618;2023-01-31T05:11:48;102066.09;;;5.16;100.00
5883;BME280;2967;51.488;6.618;2023-01-31T05:16:50;102066.22;;;5.09;100.00
5883;BME280;2967;51.488;6.618;2023-01-31T05:21:55;102069.94;;;5.01;100.00
5883;BME280;2967;51.488;6.618;2023-01-31T05:27:00;102058.22;;;5.15;100.00
5883;BME280;2967;51.488;6.618;2023-01-31T05:32:04;102045.09;;;5.16;100.00
5883;BME280;2967;51.488;6.618;2023-01-31T05:37:09;102050.38;;;5.13;100.00
5883;BME280;2967;51.488;6.618;2023-01-31T05:42:12;102037.91;;;5.24;100.00
5883;BME280;2967;51.488;6.618;2023-01-31T05:47:15;102014.97;;;5.32;100.00
5883;BME280;2967;51.488;6.618;2023-01-31T05:52:19;101994.38;;;5.16;100.00
5883;BME280;2967;51.488;6.618;2023-01-31T05:57:21;101998.94;;;5.08;100.00
5883;BME280;2967;51.488;6.618;2023-01-31T06:02:24;102012.31;;;4.98;100.00
5883;BME280;2967;51.488;6.618;2023-01-31T06:07:28;102010.16;;;5.14;100.00
5883;BME280;2967;51.488;6.618;2023-01-31T06:12:31;102009.63;;;5.37;100.00
5883;BME280;2967;51.488;6.618;2023-01-31T06:17:33;102004.44;;;5.34;100.00
5883;BME280;2967;51.488;6.618;2023-01-31T06:22:38;102007.53;;;5.14;100.00
5883;BME280;2967;51.488;6.618;2023-01-31T06:27:41;102014.28;;;5.24;100.00
5883;BME280;2967;51.488;6.618;2023-01-31T06:32:44;102008.13;;;5.25;100.00
5883;BME280;2967;51.488;6.618;2023-01-31T06:37:48;102010.94;;;5.19;100.00
5883;BME280;2967;51.488;6.618;2023-01-31T06:42:51;102018.88;;;5.16;100.00
5883;BME280;2967;51.488;6.618;2023-01-31T06:47:53;102030.50;;;5.41;100.00
5883;BME280;2967;51.488;6.618;2023-01-31T06:52:57;102034.66;;;5.50;100.00
5883;BME280;2967;51.488;6.618;2023-01-31T06:58:00;102009.31;;;5.49;100.00
5883;BME280;2967;51.488;6.618;2023-01-31T07:03:03;102020.72;;;5.48;100.00
5883;BME280;2967;51.488;6.618;2023-01-31T07:08:07;102002.16;;;5.55;100.00
5883;BME280;2967;51.488;6.618;2023-01-31T07:13:10;101996.47;;;5.38;100.00
5883;BME280;2967;51.488;6.618;2023-01-31T07:18:12;101992.13;;;5.37;100.00
5883;BME280;2967;51.488;6.618;2023-01-31T07:23:16;102006.97;;;5.38;100.00
5883;BME280;2967;51.488;6.618;2023-01-31T07:28:19;102001.13;;;5.27;100.00
5883;BME280;2967;51.488;6.618;2023-01-31T07:33:21;102008.69;;;5.39;100.00
5883;BME280;2967;51.488;6.618;2023-01-31T07:38:25;101999.00;;;5.41;100.00
5883;BME280;2967;51.488;6.618;2023-01-31T07:43:28;101953.91;;;5.27;100.00
5883;BME280;2967;51.488;6.618;2023-01-31T07:48:31;101976.34;;;5.72;100.00
5883;BME280;2967;51.488;6.618;2023-01-31T07:53:37;101930.56;;;5.15;100.00
5883;BME280;2967;51.488;6.618;2023-01-31T07:58:43;101970.53;;;5.60;100.00
5883;BME280;2967;51.488;6.618;2023-01-31T08:03:46;101986.06;;;5.69;100.00
5883;BME280;2967;51.488;6.618;2023-01-31T08:08:50;101980.09;;;5.62;100.00
5883;BME280;2967;51.488;6.618;2023-01-31T08:13:52;101982.06;;;5.88;100.00
5883;BME280;2967;51.488;6.618;2023-01-31T08:18:55;101964.25;;;5.67;100.00
5883;BME280;2967;51.488;6.618;2023-01-31T08:23:59;101964.91;;;5.75;100.00
5883;BME280;2967;51.488;6.618;2023-01-31T08:29:02;101932.97;;;5.58;100.00
5883;BME280;2967;51.488;6.618;2023-01-31T08:34:06;101895.63;;;5.48;100.00
5883;BME280;2967;51.488;6.618;2023-01-31T08:39:10;101924.56;;;5.79;100.00
5883;BME280;2967;51.488;6.618;2023-01-31T08:44:13;101931.28;;;5.55;100.00
5883;BME280;2967;51.488;6.618;2023-01-31T08:49:16;101915.75;;;5.81;100.00
5883;BME280;2967;51.488;6.618;2023-01-31T08:54:20;101908.16;;;6.03;100.00
5883;BME280;2967;51.488;6.618;2023-01-31T08:59:23;101898.69;;;5.97;100.00
5883;BME280;2967;51.488;6.618;2023-01-31T09:04:25;101911.13;;;6.20;100.00
5883;BME280;2967;51.488;6.618;2023-01-31T09:09:29;101904.75;;;5.99;100.00
5883;BME280;2967;51.488;6.618;2023-01-31T09:14:32;101892.03;;;6.15;100.00
5883;BME280;2967;51.488;6.618;2023-01-31T09:19:35;101896.94;;;6.25;100.00
5883;BME280;2967;51.488;6.618;2023-01-31T09:24:39;101896.69;;;6.34;100.00
5883;BME280;2967;51.488;6.618;2023-01-31T09:29:41;101900.09;;;6.38;100.00
5883;BME280;2967;51.488;6.618;2023-01-31T09:34:44;101894.16;;;6.31;100.00
5883;BME280;2967;51.488;6.618;2023-01-31T09:39:50;101888.78;;;6.34;100.00
5883;BME280;2967;51.488;6.618;2023-01-31T09:44:59;101866.44;;;6.49;100.00
5883;BME280;2967;51.488;6.618;2023-01-31T09:50:05;101874.47;;;6.44;100.00
5883;BME280;2967;51.488;6.618;2023-01-31T09:55:16;101857.78;;;6.45;100.00
5883;BME280;2967;51.488;6.618;2023-01-31T10:00:23;101848.53;;;6.61;100.00
5883;BME280;2967;51.488;6.618;2023-01-31T10:05:36;101838.53;;;6.72;100.00
5883;BME280;2967;51.488;6.618;2023-01-31T10:10:45;101857.13;;;6.66;100.00
5883;BME280;2967;51.488;6.618;2023-01-31T10:15:51;101847.72;;;6.85;100.00
5883;BME280;2967;51.488;6.618;2023-01-31T10:20:59;101836.63;;;6.77;100.00
5883;BME280;2967;51.488;6.618;2023-01-31T10:26:09;101831.91;;;6.87;100.00
5883;BME280;2967;51.488;6.618;2023-01-31T10:31:24;101824.06;;;6.85;100.00
5883;BME280;2967;51.488;6.618;2023-01-31T10:36:32;101824.91;;;6.87;100.00
5883;BME280;2967;51.488;6.618;2023-01-31T10:41:55;101823.19;;;7.11;100.00
5883;BME280;2967;51.488;6.618;2023-01-31T10:47:01;101842.22;;;7.19;100.00
5883;BME280;2967;51.488;6.618;2023-01-31T10:52:12;101827.63;;;7.35;100.00
5883;BME280;2967;51.488;6.618;2023-01-31T10:57:16;101826.09;;;7.28;100.00
5883;BME280;2967;51.488;6.618;2023-01-31T11:02:22;101815.91;;;7.19;100.00
5883;BME280;2967;51.488;6.618;2023-01-31T11:07:27;101811.03;;;7.33;100.00
5883;BME280;2967;51.488;6.618;2023-01-31T11:12:41;101799.91;;;7.72;100.00
5883;BME280;2967;51.488;6.618;2023-01-31T11:17:45;101795.38;;;7.53;100.00
5883;BME280;2967;51.488;6.618;2023-01-31T11:22:49;101786.25;;;7.38;100.00
5883;BME280;2967;51.488;6.618;2023-01-31T11:27:56;101785.56;;;7.56;100.00
5883;BME280;2967;51.488;6.618;2023-01-31T11:33:00;101746.88;;;7.35;100.00
5883;BME280;2967;51.488;6.618;2023-01-31T11:38:22;101771.03;;;7.92;100.00
5883;BME280;2967;51.488;6.618;2023-01-31T11:43:29;101761.47;;;7.89;100.00
5883;BME280;2967;51.488;6.618;2023-01-31T11:48:39;101775.84;;;8.04;100.00
5883;BME280;2967;51.488;6.618;2023-01-31T11:53:46;101762.91;;;8.21;100.00
5883;BME280;2967;51.488;6.618;2023-01-31T11:58:52;101745.53;;;8.58;100.00
5883;BME280;2967;51.488;6.618;2023-01-31T12:03:57;101765.53;;;8.21;100.00
5883;BME280;2967;51.488;6.618;2023-01-31T12:09:18;101761.09;;;8.21;100.00
5883;BME280;2967;51.488;6.618;2023-01-31T12:14:23;101762.44;;;8.10;100.00
5883;BME280;2967;51.488;6.618;2023-01-31T12:19:37;101742.94;;;7.92;100.00
5883;BME280;2967;51.488;6.618;2023-01-31T12:24:57;101764.50;;;8.02;100.00
5883;BME280;2967;51.488;6.618;2023-01-31T12:30:17;101714.75;;;7.94;100.00
5883;BME280;2967;51.488;6.618;2023-01-31T12:35:35;101718.97;;;7.98;100.00
5883;BME280;2967;51.488;6.618;2023-01-31T12:40:46;101720.06;;;7.93;100.00
5883;BME280;2967;51.488;6.618;2023-01-31T12:46:03;101715.06;;;7.87;100.00
5883;BME280;2967;51.488;6.618;2023-01-31T12:51:18;101721.53;;;7.78;100.00
5883;BME280;2967;51.488;6.618;2023-01-31T12:56:46;101722.66;;;7.71;100.00
5883;BME280;2967;51.488;6.618;2023-01-31T13:01:57;101722.56;;;7.74;100.00
5883;BME280;2967;51.488;6.618;2023-01-31T13:07:03;101725.59;;;7.64;100.00
5883;BME280;2967;51.488;6.618;2023-01-31T13:12:11;101716.91;;;7.62;100.00
5883;BME280;2967;51.488;6.618;2023-01-31T13:17:22;101711.69;;;7.61;100.00
5883;BME280;2967;51.488;6.618;2023-01-31T13:22:29;101710.56;;;7.45;100.00
5883;BME280;2967;51.488;6.618;2023-01-31T13:27:37;101723.47;;;7.28;100.00
5883;BME280;2967;51.488;6.618;2023-01-31T13:32:45;101719.84;;;7.32;100.00
5883;BME280;2967;51.488;6.618;2023-01-31T13:37:51;101712.75;;;7.34;100.00
5883;BME280;2967;51.488;6.618;2023-01-31T13:42:59;101713.75;;;7.30;100.00
5883;BME280;2967;51.488;6.618;2023-01-31T13:48:07;101716.63;;;7.47;100.00
5883;BME280;2967;51.488;6.618;2023-01-31T13:53:15;101704.22;;;7.50;100.00
5883;BME280;2967;51.488;6.618;2023-01-31T13:58:23;101704.22;;;7.50;100.00
5883;BME280;2967;51.488;6.618;2023-01-31T14:03:28;101695.16;;;7.34;100.00
5883;BME280;2967;51.488;6.618;2023-01-31T14:08:37;101688.59;;;7.46;100.00
5883;BME280;2967;51.488;6.618;2023-01-31T14:13:42;101696.69;;;7.40;100.00
5883;BME280;2967;51.488;6.618;2023-01-31T14:18:46;101694.47;;;7.52;100.00
5883;BME280;2967;51.488;6.618;2023-01-31T14:23:49;101695.94;;;7.36;100.00
5883;BME280;2967;51.488;6.618;2023-01-31T14:28:52;101703.47;;;7.47;100.00
5883;BME280;2967;51.488;6.618;2023-01-31T14:33:56;101710.06;;;7.58;100.00
5883;BME280;2967;51.488;6.618;2023-01-31T14:39:22;101710.97;;;7.57;100.00
5883;BME280;2967;51.488;6.618;2023-01-31T14:44:38;101700.06;;;7.66;100.00
5883;BME280;2967;51.488;6.618;2023-01-31T14:55:36;101720.13;;;7.70;100.00
5883;BME280;2967;51.488;6.618;2023-01-31T15:06:27;101743.50;;;7.77;100.00
5883;BME280;2967;51.488;6.618;2023-01-31T15:11:39;101748.59;;;7.82;100.00
5883;BME280;2967;51.488;6.618;2023-01-31T15:16:43;101749.31;;;7.87;100.00
5883;BME280;2967;51.488;6.618;2023-01-31T15:21:48;101758.97;;;7.86;100.00
5883;BME280;2967;51.488;6.618;2023-01-31T15:26:53;101750.75;;;7.94;100.00
5883;BME280;2967;51.488;6.618;2023-01-31T15:32:00;101741.88;;;7.96;100.00
5883;BME280;2967;51.488;6.618;2023-01-31T15:37:08;101752.38;;;7.98;100.00
5883;BME280;2967;51.488;6.618;2023-01-31T15:42:23;101754.13;;;7.97;100.00
5883;BME280;2967;51.488;6.618;2023-01-31T15:47:26;101764.28;;;8.08;100.00
5883;BME280;2967;51.488;6.618;2023-01-31T15:52:30;101767.84;;;8.07;100.00
5883;BME280;2967;51.488;6.618;2023-01-31T15:57:38;101765.72;;;8.15;100.00
5883;BME280;2967;51.488;6.618;2023-01-31T16:02:45;101760.63;;;8.10;100.00
5883;BME280;2967;51.488;6.618;2023-01-31T16:07:48;101751.19;;;8.05;100.00
5883;BME280;2967;51.488;6.618;2023-01-31T16:12:52;101763.09;;;8.15;100.00
5883;BME280;2967;51.488;6.618;2023-01-31T16:17:59;101763.06;;;8.16;100.00
5883;BME280;2967;51.488;6.618;2023-01-31T16:23:03;101764.47;;;8.25;100.00
5883;BME280;2967;51.488;6.618;2023-01-31T16:28:11;101756.53;;;8.26;100.00
5883;BME280;2967;51.488;6.618;2023-01-31T16:33:16;101777.66;;;8.25;100.00
5883;BME280;2967;51.488;6.618;2023-01-31T16:38:22;101781.72;;;8.33;100.00
5883;BME280;2967;51.488;6.618;2023-01-31T16:43:29;101777.31;;;8.34;100.00
5883;BME280;2967;51.488;6.618;2023-01-31T16:48:34;101782.56;;;8.34;100.00
5883;BME280;2967;51.488;6.618;2023-01-31T16:53:37;101781.91;;;8.29;100.00
5883;BME280;2967;51.488;6.618;2023-01-31T16:58:49;101800.47;;;8.26;100.00
5883;BME280;2967;51.488;6.618;2023-01-31T17:04:05;101810.66;;;8.35;100.00
5883;BME280;2967;51.488;6.618;2023-01-31T17:09:19;101817.69;;;8.77;100.00
5883;BME280;2967;51.488;6.618;2023-01-31T17:14:23;101819.09;;;8.86;100.00
5883;BME280;2967;51.488;6.618;2023-01-31T17:19:26;101802.75;;;8.78;100.00
5883;BME280;2967;51.488;6.618;2023-01-31T17:24:30;101766.03;;;8.52;100.00
5883;BME280;2967;51.488;6.618;2023-01-31T17:29:34;101790.78;;;8.69;100.00
5883;BME280;2967;51.488;6.618;2023-01-31T17:34:37;101780.41;;;8.65;100.00
5883;BME280;2967;51.488;6.618;2023-01-31T17:39:39;101777.97;;;8.60;100.00
5883;BME280;2967;51.488;6.618;2023-01-31T17:44:44;101782.13;;;8.66;100.00
5883;BME280;2967;51.488;6.618;2023-01-31T17:49:46;101786.22;;;8.73;100.00
5883;BME280;2967;51.488;6.618;2023-01-31T17:54:49;101784.06;;;8.62;100.00
5883;BME280;2967;51.488;6.618;2023-01-31T17:59:53;101787.41;;;8.66;100.00
5883;BME280;2967;51.488;6.618;2023-01-31T18:04:55;101790.16;;;8.63;100.00
5883;BME280;2967;51.488;6.618;2023-01-31T18:09:58;101792.84;;;8.61;100.00
5883;BME280;2967;51.488;6.618;2023-01-31T18:15:03;101770.41;;;8.51;100.00
5883;BME280;2967;51.488;6.618;2023-01-31T18:20:06;101774.63;;;8.57;100.00
5883;BME280;2967;51.488;6.618;2023-01-31T18:25:09;101763.00;;;8.39;100.00
5883;BME280;2967;51.488;6.618;2023-01-31T18:30:14;101784.78;;;8.44;100.00
5883;BME280;2967;51.488;6.618;2023-01-31T18:35:17;101763.81;;;8.20;100.00
5883;BME280;2967;51.488;6.618;2023-01-31T18:40:22;101781.91;;;8.29;100.00
5883;BME280;2967;51.488;6.618;2023-01-31T18:45:28;101797.59;;;8.32;100.00
5883;BME280;2967;51.488;6.618;2023-01-31T18:50:30;101802.06;;;8.30;100.00
5883;BME280;2967;51.488;6.618;2023-01-31T18:55:33;101811.75;;;8.29;100.00
5883;BME280;2967;51.488;6.618;2023-01-31T19:00:37;101808.13;;;8.32;100.00
5883;BME280;2967;51.488;6.618;2023-01-31T19:05:40;101815.38;;;8.27;100.00
5883;BME280;2967;51.488;6.618;2023-01-31T19:10:42;101812.75;;;8.27;100.00
5883;BME280;2967;51.488;6.618;2023-01-31T19:15:46;101810.53;;;8.15;100.00
5883;BME280;2967;51.488;6.618;2023-01-31T19:20:49;101817.78;;;8.10;100.00
5883;BME280;2967;51.488;6.618;2023-01-31T19:25:52;101792.88;;;7.95;100.00
5883;BME280;2967;51.488;6.618;2023-01-31T19:31:02;101817.03;;;8.06;100.00
5883;BME280;2967;51.488;6.618;2023-01-31T19:36:09;101779.28;;;7.83;100.00
5883;BME280;2967;51.488;6.618;2023-01-31T19:41:13;101821.38;;;8.07;100.00
5883;BME280;2967;51.488;6.618;2023-01-31T19:46:19;101818.16;;;7.99;100.00
5883;BME280;2967;51.488;6.618;2023-01-31T19:51:22;101827.75;;;8.02;100.00
5883;BME280;2967;51.488;6.618;2023-01-31T19:56:26;101823.25;;;8.04;100.00
5883;BME280;2967;51.488;6.618;2023-01-31T20:01:30;101798.69;;;7.80;100.00
5883;BME280;2967;51.488;6.618;2023-01-31T20:06:33;101823.56;;;7.96;100.00
5883;BME280;2967;51.488;6.618;2023-01-31T20:11:36;101819.16;;;7.97;100.00
5883;BME280;2967;51.488;6.618;2023-01-31T20:16:39;101819.34;;;7.92;100.00
5883;BME280;2967;51.488;6.618;2023-01-31T20:21:42;101816.88;;;7.88;100.00
5883;BME280;2967;51.488;6.618;2023-01-31T20:26:45;101784.78;;;7.54;100.00
5883;BME280;2967;51.488;6.618;2023-01-31T20:31:50;101826.03;;;7.78;100.00
5883;BME280;2967;51.488;6.618;2023-01-31T20:36:52;101827.16;;;7.71;100.00
5883;BME280;2967;51.488;6.618;2023-01-31T20:41:55;101827.31;;;7.67;100.00
5883;BME280;2967;51.488;6.618;2023-01-31T20:46:59;101821.81;;;7.50;100.00
5883;BME280;2967;51.488;6.618;2023-01-31T20:52:02;101819.88;;;7.55;100.00
5883;BME280;2967;51.488;6.618;2023-01-31T20:57:05;101819.06;;;7.53;100.00
5883;BME280;2967;51.488;6.618;2023-01-31T21:02:09;101811.03;;;7.33;100.00
5883;BME280;2967;51.488;6.618;2023-01-31T21:07:12;101816.19;;;7.36;100.00
5883;BME280;2967;51.488;6.618;2023-01-31T21:12:15;101815.97;;;7.42;100.00
5883;BME280;2967;51.488;6.618;2023-01-31T21:17:19;101817.28;;;7.53;100.00
5883;BME280;2967;51.488;6.618;2023-01-31T21:22:35;101787.88;;;7.42;100.00
5883;BME280;2967;51.488;6.618;2023-01-31T21:27:37;101809.00;;;7.64;100.00
5883;BME280;2967;51.488;6.618;2023-01-31T21:32:42;101812.31;;;7.46;100.00
5883;BME280;2967;51.488;6.618;2023-01-31T21:37:46;101817.53;;;7.47;100.00
5883;BME280;2967;51.488;6.618;2023-01-31T21:42:49;101816.03;;;7.40;100.00
5883;BME280;2967;51.488;6.618;2023-01-31T21:47:55;101767.88;;;7.37;100.00
5883;BME280;2967;51.488;6.618;2023-01-31T21:53:16;101789.66;;;7.17;100.00
5883;BME280;2967;51.488;6.618;2023-01-31T21:58:18;101786.47;;;7.32;100.00
5883;BME280;2967;51.488;6.618;2023-01-31T22:03:23;101779.16;;;7.40;100.00
5883;BME280;2967;51.488;6.618;2023-01-31T22:08:25;101778.09;;;7.46;100.00
5883;BME280;2967;51.488;6.618;2023-01-31T22:13:28;101765.31;;;7.35;100.00
5883;BME280;2967;51.488;6.618;2023-01-31T22:18:33;101727.31;;;7.19;100.00
5883;BME280;2967;51.488;6.618;2023-01-31T22:23:37;101761.09;;;7.54;100.00
5883;BME280;2967;51.488;6.618;2023-01-31T22:28:41;101758.19;;;7.62;100.00
5883;BME280;2967;51.488;6.618;2023-01-31T22:33:44;101754.06;;;7.55;100.00
5883;BME280;2967;51.488;6.618;2023-01-31T22:38:48;101765.34;;;7.58;100.00
5883;BME280;2967;51.488;6.618;2023-01-31T22:43:51;101755.03;;;7.52;100.00
5883;BME280;2967;51.488;6.618;2023-01-31T22:48:55;101749.00;;;7.49;100.00
5883;BME280;2967;51.488;6.618;2023-01-31T22:53:58;101739.97;;;7.56;100.00
5883;BME280;2967;51.488;6.618;2023-01-31T22:59:03;101706.25;;;7.42;100.00
5883;BME280;2967;51.488;6.618;2023-01-31T23:04:09;101695.69;;;7.44;100.00
5883;BME280;2967;51.488;6.618;2023-01-31T23:09:12;101712.94;;;7.51;100.00
5883;BME280;2967;51.488;6.618;2023-01-31T23:14:14;101724.53;;;7.47;100.00
5883;BME280;2967;51.488;6.618;2023-01-31T23:19:18;101724.22;;;7.54;100.00
5883;BME280;2967;51.488;6.618;2023-01-31T23:24:21;101718.97;;;7.54;100.00
5883;BME280;2967;51.488;6.618;2023-01-31T23:29:23;101725.22;;;7.52;100.00
5883;BME280;2967;51.488;6.618;2023-01-31T23:34:27;101723.91;;;7.40;100.00
5883;BME280;2967;51.488;6.618;2023-01-31T23:39:30;101733.72;;;7.35;100.00
5883;BME280;2967;51.488;6.618;2023-01-31T23:44:33;101737.06;;;7.40;100.00
5883;BME280;2967;51.488;6.618;2023-01-31T23:49:37;101747.47;;;7.43;100.00
5883;BME280;2967;51.488;6.618;2023-01-31T23:54:39;101744.03;;;7.41;100.00
5883;BME280;2967;51.488;6.618;2023-01-31T23:59:42;101732.59;;;7.42;100.00
